createdAt,value
2023-02-17T00:01:36.688Z,25.70
2023-02-17T00:04:05.408Z,25.70
2023-02-17T00:06:35.691Z,25.60
2023-02-17T00:09:04.299Z,25.70
2023-02-17T00:11:32.743Z,25.60
2023-02-17T00:14:01.073Z,25.60
2023-02-17T00:16:30.242Z,25.60
2023-02-17T00:19:02.875Z,25.60
2023-02-17T00:21:33.269Z,25.60
2023-02-17T00:24:01.854Z,25.50
2023-02-17T00:26:30.362Z,25.40
2023-02-17T00:28:59.357Z,25.40
2023-02-17T00:31:27.959Z,25.40
2023-02-17T00:33:56.996Z,25.50
2023-02-17T00:36:26.974Z,25.50
2023-02-17T00:38:57.209Z,25.40
2023-02-17T00:41:29.152Z,25.40
2023-02-17T00:43:59.223Z,25.40
2023-02-17T00:46:28.129Z,25.50
2023-02-17T00:48:56.758Z,25.50
2023-02-17T00:51:25.831Z,25.50
2023-02-17T00:53:54.136Z,25.50
2023-02-17T00:56:22.376Z,25.40
2023-02-17T00:58:50.632Z,25.40
2023-02-17T01:01:19.144Z,25.40
2023-02-17T01:03:47.524Z,25.30
2023-02-17T01:06:24.708Z,25.30
2023-02-17T01:08:53.192Z,25.30
2023-02-17T01:11:24.895Z,25.20
2023-02-17T01:13:53.548Z,25.20
2023-02-17T01:16:30.421Z,25.10
2023-02-17T01:19:00.362Z,25.10
2023-02-17T01:21:31.224Z,25.10
2023-02-17T01:24:02.363Z,25.10
2023-02-17T01:26:32.240Z,25.10
2023-02-17T01:29:03.573Z,25.10
2023-02-17T01:31:31.966Z,25.10
2023-02-17T01:34:02.415Z,25.20
2023-02-17T01:36:30.936Z,25.10
2023-02-17T01:39:00.639Z,25.20
2023-02-17T01:41:29.770Z,25.20
2023-02-17T01:44:20.920Z,25.20
2023-02-17T01:46:51.480Z,25.30
2023-02-17T01:49:43.742Z,25.30
2023-02-17T01:52:24.779Z,25.30
2023-02-17T01:55:01.001Z,25.30
2023-02-17T01:57:32.338Z,25.30
2023-02-17T02:00:01.334Z,25.40
2023-02-17T02:02:42.590Z,25.40
2023-02-17T02:05:15.582Z,25.40
2023-02-17T02:07:47.038Z,25.50
2023-02-17T02:10:18.559Z,25.50
2023-02-17T02:12:47.111Z,25.50
2023-02-17T02:15:21.788Z,25.50
2023-02-17T02:18:08.542Z,25.50
2023-02-17T02:20:48.189Z,25.50
2023-02-17T02:23:49.105Z,25.50
2023-02-17T02:26:54.447Z,25.40
2023-02-17T02:29:57.373Z,25.50
2023-02-17T02:32:40.321Z,25.40
2023-02-17T02:35:39.464Z,25.40
2023-02-17T02:38:15.271Z,25.40
2023-02-17T02:40:53.286Z,25.40
2023-02-17T02:43:27.819Z,25.30
2023-02-17T02:45:56.341Z,25.30
2023-02-17T02:48:25.901Z,25.30
2023-02-17T02:51:13.899Z,25.30
2023-02-17T02:53:51.167Z,25.30
2023-02-17T02:56:42.346Z,25.30
2023-02-17T02:59:58.552Z,25.30
2023-02-17T03:02:44.150Z,25.30
2023-02-17T03:05:27.145Z,25.30
2023-02-17T03:08:10.376Z,25.30
2023-02-17T03:10:47.210Z,25.30
2023-02-17T03:13:16.074Z,25.30
2023-02-17T03:15:44.882Z,25.20
2023-02-17T03:18:13.559Z,25.10
2023-02-17T03:20:52.485Z,25.10
2023-02-17T03:23:20.849Z,25.10
2023-02-17T03:25:50.252Z,25.00
2023-02-17T03:28:18.663Z,25.00
2023-02-17T03:30:47.965Z,25.00
2023-02-17T03:33:16.322Z,25.00
2023-02-17T03:35:44.507Z,25.00
2023-02-17T03:38:12.751Z,24.90
2023-02-17T03:40:41.112Z,24.90
2023-02-17T03:43:09.390Z,25.00
2023-02-17T03:45:38.077Z,25.00
2023-02-17T03:48:07.653Z,24.90
2023-02-17T03:50:35.995Z,24.90
2023-02-17T03:53:04.234Z,24.90
2023-02-17T03:55:32.474Z,24.80
2023-02-17T03:58:00.733Z,24.70
2023-02-17T04:00:29.132Z,24.80
2023-02-17T04:02:57.527Z,24.80
2023-02-17T04:05:26.084Z,24.90
2023-02-17T04:07:54.301Z,25.00
2023-02-17T04:10:25.512Z,25.00
2023-02-17T04:12:54.071Z,25.00
2023-02-17T04:15:22.252Z,25.00
2023-02-17T04:17:50.456Z,25.00
2023-02-17T04:20:18.976Z,25.00
2023-02-17T04:22:47.288Z,25.00
2023-02-17T04:25:15.513Z,25.10
2023-02-17T04:27:43.873Z,25.10
2023-02-17T04:30:12.788Z,25.10
2023-02-17T04:32:41.031Z,25.10
2023-02-17T04:35:09.420Z,25.10
2023-02-17T04:37:37.596Z,25.20
2023-02-17T04:40:06.912Z,25.10
2023-02-17T04:42:35.159Z,25.20
2023-02-17T04:45:04.266Z,25.10
2023-02-17T04:47:32.486Z,25.10
2023-02-17T04:50:00.827Z,25.10
2023-02-17T04:52:29.223Z,25.10
2023-02-17T04:54:57.616Z,25.10
2023-02-17T04:57:25.878Z,25.10
2023-02-17T04:59:54.142Z,25.10
2023-02-17T05:02:22.455Z,25.10
2023-02-17T05:18:10.656Z,25.10
2023-02-17T05:20:41.199Z,25.10
2023-02-17T05:23:11.409Z,25.10
2023-02-17T05:25:41.811Z,25.10
2023-02-17T05:28:12.071Z,25.10
2023-02-17T05:30:42.490Z,25.10
2023-02-17T05:33:12.659Z,25.10
2023-02-17T05:35:43.358Z,25.20
2023-02-17T05:38:13.643Z,25.20
2023-02-17T05:40:44.392Z,25.20
2023-02-17T05:43:14.857Z,25.20
2023-02-17T05:45:45.488Z,25.20
2023-02-17T05:48:15.976Z,25.20
2023-02-17T05:50:46.412Z,25.20
2023-02-17T05:53:16.885Z,25.20
2023-02-17T05:55:48.812Z,25.20
2023-02-17T05:58:19.134Z,25.20
2023-02-17T06:00:49.670Z,25.20
2023-02-17T06:03:19.985Z,25.20
2023-02-17T06:05:50.451Z,25.20
2023-02-17T06:08:20.987Z,25.20
2023-02-17T06:10:51.265Z,25.30
2023-02-17T06:13:22.408Z,25.20
2023-02-17T06:15:52.917Z,25.20
2023-02-17T06:18:23.145Z,25.10
2023-02-17T06:20:56.152Z,25.10
2023-02-17T06:23:27.480Z,25.10
2023-02-17T06:25:58.287Z,25.10
2023-02-17T06:28:28.513Z,25.10
2023-02-17T06:30:58.682Z,25.00
2023-02-17T06:33:29.235Z,25.00
2023-02-17T06:35:59.452Z,24.90
2023-02-17T06:38:30.008Z,25.00
2023-02-17T06:41:00.282Z,24.90
2023-02-17T06:43:30.801Z,24.90
2023-02-17T06:46:01.276Z,24.90
2023-02-17T06:48:31.875Z,25.00
2023-02-17T06:51:02.976Z,24.90
2023-02-17T06:53:32.906Z,24.90
2023-02-17T06:56:03.758Z,24.80
2023-02-17T06:58:34.191Z,24.80
2023-02-17T07:01:05.085Z,24.90
2023-02-17T07:03:35.320Z,25.00
2023-02-17T07:06:06.470Z,25.00
2023-02-17T07:08:37.206Z,25.00
2023-02-17T07:11:12.844Z,24.90
2023-02-17T07:13:43.560Z,24.90
2023-02-17T07:16:23.963Z,24.90
2023-02-17T07:18:57.664Z,25.00
2023-02-17T07:21:27.882Z,25.00
2023-02-17T07:23:58.750Z,25.00
2023-02-17T07:26:29.494Z,25.00
2023-02-17T07:28:59.747Z,25.00
2023-02-17T07:31:32.366Z,25.00
2023-02-17T07:34:05.030Z,25.00
2023-02-17T07:36:35.175Z,25.10
2023-02-17T07:39:10.740Z,25.10
2023-02-17T07:41:39.563Z,25.20
2023-02-17T07:44:12.416Z,25.20
2023-02-17T07:46:40.915Z,25.10
2023-02-17T07:49:09.224Z,25.20
2023-02-17T07:51:37.571Z,25.20
2023-02-17T07:54:06.984Z,25.20
2023-02-17T07:56:36.388Z,25.20
2023-02-17T07:59:04.578Z,25.30
2023-02-17T08:01:32.951Z,25.30
2023-02-17T08:04:01.255Z,25.30
2023-02-17T08:06:29.588Z,25.30
2023-02-17T08:08:58.245Z,25.30
2023-02-17T08:11:26.947Z,25.40
2023-02-17T08:13:55.276Z,25.40
2023-02-17T08:16:23.496Z,25.50
2023-02-17T08:18:51.690Z,25.50
2023-02-17T08:21:19.980Z,25.60
2023-02-17T08:23:48.639Z,25.60
2023-02-17T08:26:17.174Z,25.70
2023-02-17T08:28:46.123Z,25.70
2023-02-17T08:31:29.272Z,25.80
2023-02-17T08:33:58.187Z,25.90
2023-02-17T08:36:26.450Z,25.90
2023-02-17T08:38:55.656Z,26.00
2023-02-17T08:41:28.362Z,26.00
2023-02-17T08:44:07.671Z,26.00
2023-02-17T08:46:37.085Z,26.00
2023-02-17T08:49:07.009Z,26.10
2023-02-17T08:51:35.881Z,26.10
2023-02-17T08:54:06.506Z,26.10
2023-02-17T08:56:36.912Z,26.20
2023-02-17T08:59:06.482Z,26.30
2023-02-17T09:01:35.222Z,26.30
2023-02-17T09:04:06.132Z,26.30
2023-02-17T09:06:54.930Z,26.30
2023-02-17T09:09:25.208Z,26.40
2023-02-17T09:11:54.465Z,26.50
2023-02-17T09:14:23.026Z,26.60
2023-02-17T09:16:55.975Z,26.70
2023-02-17T09:19:25.113Z,26.70
2023-02-17T09:21:53.832Z,26.80
2023-02-17T09:24:22.388Z,26.90
2023-02-17T09:26:50.713Z,27.00
2023-02-17T09:29:18.911Z,27.00
2023-02-17T09:31:47.404Z,27.10
2023-02-17T09:34:15.717Z,27.10
2023-02-17T09:36:44.094Z,27.10
2023-02-17T09:39:13.672Z,27.20
2023-02-17T09:41:51.981Z,27.20
2023-02-17T09:44:46.436Z,27.30
2023-02-17T09:47:26.669Z,27.30
2023-02-17T09:50:10.200Z,27.30
2023-02-17T09:52:42.617Z,27.20
2023-02-17T09:55:24.303Z,27.30
2023-02-17T09:58:00.077Z,27.40
2023-02-17T10:01:00.642Z,27.40
2023-02-17T10:03:49.064Z,27.40
2023-02-17T10:06:28.210Z,27.50
2023-02-17T10:09:18.517Z,27.50
2023-02-17T10:12:37.636Z,27.60
2023-02-17T10:15:17.664Z,27.70
2023-02-17T10:18:29.202Z,27.80
2023-02-17T10:21:05.935Z,27.80
2023-02-17T10:23:35.255Z,27.90
2023-02-17T10:26:25.166Z,27.90
2023-02-17T10:28:54.500Z,28.00
2023-02-17T10:31:25.548Z,28.10
2023-02-17T10:34:03.981Z,28.10
2023-02-17T10:37:11.317Z,28.20
2023-02-17T10:39:51.354Z,28.30
2023-02-17T10:42:38.772Z,28.40
2023-02-17T10:45:13.790Z,28.40
2023-02-17T10:47:42.416Z,28.50
2023-02-17T10:50:23.985Z,28.40
2023-02-17T10:52:53.875Z,28.40
2023-02-17T10:55:36.627Z,28.40
2023-02-17T10:58:29.447Z,28.50
2023-02-17T11:00:58.109Z,28.60
2023-02-17T11:03:28.298Z,28.70
2023-02-17T11:06:02.732Z,28.70
2023-02-17T11:08:42.269Z,28.70
2023-02-17T11:11:30.982Z,28.60
2023-02-17T11:14:29.883Z,28.60
2023-02-17T11:17:04.572Z,28.70
2023-02-17T11:19:37.123Z,28.70
2023-02-17T11:22:32.010Z,28.80
2023-02-17T11:25:08.442Z,28.90
2023-02-17T11:27:36.715Z,28.90
2023-02-17T11:30:17.567Z,29.00
2023-02-17T11:32:46.017Z,29.10
2023-02-17T11:35:39.398Z,29.10
2023-02-17T11:38:17.325Z,29.10
2023-02-17T11:40:58.316Z,29.10
2023-02-17T11:43:30.803Z,29.20
2023-02-17T11:46:29.910Z,29.20
2023-02-17T11:49:35.169Z,29.40
2023-02-17T11:52:24.063Z,29.50
2023-02-17T11:55:16.727Z,29.50
2023-02-17T11:57:59.648Z,29.60
2023-02-17T12:00:46.149Z,29.70
2023-02-17T12:03:36.854Z,29.70
2023-02-17T12:06:49.177Z,29.60
2023-02-17T12:10:08.120Z,29.70
2023-02-17T12:12:48.160Z,29.60
2023-02-17T12:15:54.448Z,29.70
2023-02-17T12:18:54.748Z,29.70
2023-02-17T12:21:32.300Z,29.80
2023-02-17T12:24:31.169Z,29.70
2023-02-17T12:27:21.037Z,29.70
2023-02-17T12:30:07.807Z,29.70
2023-02-17T12:32:39.359Z,29.70
2023-02-17T12:35:24.528Z,29.70
2023-02-17T12:38:04.435Z,29.70
2023-02-17T12:40:40.134Z,29.80
2023-02-17T12:43:38.603Z,29.70
2023-02-17T12:46:15.697Z,29.60
2023-02-17T12:49:07.654Z,29.70
2023-02-17T12:51:58.332Z,29.60
2023-02-17T12:55:10.889Z,29.60
2023-02-17T12:57:56.961Z,29.70
2023-02-17T13:00:45.444Z,29.70
2023-02-17T13:03:13.874Z,29.90
2023-02-17T13:05:48.355Z,30.00
2023-02-17T13:08:25.235Z,29.90
2023-02-17T13:11:05.313Z,30.10
2023-02-17T13:13:35.643Z,30.20
2023-02-17T13:16:18.742Z,30.30
2023-02-17T13:18:50.454Z,30.40
2023-02-17T13:21:21.870Z,30.40
2023-02-17T13:24:01.192Z,30.50
2023-02-17T13:26:35.178Z,30.40
2023-02-17T13:29:24.903Z,30.40
2023-02-17T13:32:02.563Z,30.40
2023-02-17T13:34:41.638Z,30.50
2023-02-17T13:37:36.112Z,30.40
2023-02-17T13:40:24.167Z,30.30
2023-02-17T13:43:08.524Z,30.20
2023-02-17T13:45:47.636Z,30.30
2023-02-17T13:48:21.922Z,30.30
2023-02-17T13:50:56.349Z,30.40
2023-02-17T13:53:35.498Z,30.40
2023-02-17T13:56:07.707Z,30.30
2023-02-17T13:58:39.026Z,30.40
2023-02-17T14:01:15.313Z,30.40
2023-02-17T14:03:46.781Z,30.40
2023-02-17T14:06:39.191Z,30.30
2023-02-17T14:09:24.416Z,30.40
2023-02-17T14:11:54.385Z,30.50
2023-02-17T14:14:30.200Z,30.60
2023-02-17T14:17:14.579Z,30.60
2023-02-17T14:19:50.145Z,30.60
2023-02-17T14:22:30.569Z,30.50
2023-02-17T14:25:13.467Z,30.50
2023-02-17T14:27:44.183Z,30.40
2023-02-17T14:30:27.965Z,30.50
2023-02-17T14:33:14.680Z,30.50
2023-02-17T14:36:03.456Z,30.60
2023-02-17T14:38:35.161Z,30.60
2023-02-17T14:41:07.451Z,30.50
2023-02-17T14:43:36.628Z,30.50
2023-02-17T14:46:05.306Z,30.70
2023-02-17T14:48:35.113Z,30.80
2023-02-17T14:51:03.568Z,30.90
2023-02-17T14:53:34.128Z,30.90
2023-02-17T14:56:09.248Z,30.90
2023-02-17T14:58:37.774Z,31.00
2023-02-17T15:01:06.318Z,31.10
2023-02-17T15:03:34.844Z,31.20
2023-02-17T15:06:03.201Z,31.10
2023-02-17T15:08:35.172Z,31.10
2023-02-17T15:11:03.333Z,30.90
2023-02-17T15:13:31.408Z,30.90
2023-02-17T15:16:02.503Z,30.90
2023-02-17T15:18:30.900Z,31.20
2023-02-17T15:20:59.168Z,31.20
2023-02-17T15:23:32.561Z,31.30
2023-02-17T15:26:00.729Z,31.30
2023-02-17T15:28:29.136Z,31.50
2023-02-17T15:30:57.659Z,31.50
2023-02-17T15:33:26.061Z,31.50
2023-02-17T15:35:55.193Z,31.60
2023-02-17T15:38:24.912Z,31.70
2023-02-17T15:40:53.499Z,31.70
2023-02-17T15:43:23.661Z,31.60
2023-02-17T15:45:51.907Z,31.50
2023-02-17T15:48:29.146Z,31.60
2023-02-17T15:50:57.407Z,31.70
2023-02-17T15:53:25.706Z,31.70
2023-02-17T15:55:54.021Z,31.70
2023-02-17T15:58:23.640Z,31.50
2023-02-17T16:00:52.044Z,31.70
2023-02-17T16:03:20.358Z,31.80
2023-02-17T16:05:48.757Z,32.10
2023-02-17T16:08:16.906Z,32.10
2023-02-17T16:10:45.515Z,32.20
2023-02-17T16:13:16.488Z,32.10
2023-02-17T16:15:47.967Z,32.00
2023-02-17T16:18:23.922Z,31.80
2023-02-17T16:20:52.908Z,31.80
2023-02-17T16:23:21.019Z,31.80
2023-02-17T16:25:50.875Z,31.50
2023-02-17T16:28:21.528Z,31.40
2023-02-17T16:30:50.380Z,31.80
2023-02-17T16:33:19.580Z,31.90
2023-02-17T16:35:50.225Z,32.10
2023-02-17T16:38:24.526Z,32.10
2023-02-17T16:40:53.665Z,31.70
2023-02-17T16:43:25.136Z,31.90
2023-02-17T16:45:57.174Z,32.00
2023-02-17T16:48:27.948Z,32.00
2023-02-17T16:50:56.687Z,32.00
2023-02-17T16:53:24.874Z,32.00
2023-02-17T16:55:55.396Z,32.10
2023-02-17T16:58:26.045Z,32.20
2023-02-17T17:00:55.870Z,32.00
2023-02-17T17:03:24.198Z,32.00
2023-02-17T17:05:54.345Z,32.00
2023-02-17T17:08:22.780Z,32.10
2023-02-17T17:10:51.102Z,31.70
2023-02-17T17:13:19.350Z,31.70
2023-02-17T17:15:47.552Z,31.90
2023-02-17T17:18:22.334Z,32.00
2023-02-17T17:20:51.014Z,32.10
2023-02-17T17:23:19.164Z,31.90
2023-02-17T17:25:47.681Z,31.70
2023-02-17T17:28:18.167Z,31.60
2023-02-17T17:30:47.421Z,31.50
2023-02-17T17:33:16.232Z,31.40
2023-02-17T17:35:44.853Z,31.30
2023-02-17T17:38:16.425Z,31.30
2023-02-17T17:40:52.477Z,31.10
2023-02-17T17:43:22.345Z,30.90
2023-02-17T17:45:51.919Z,30.70
2023-02-17T17:48:20.890Z,30.60
2023-02-17T17:50:51.827Z,30.50
2023-02-17T17:53:20.257Z,30.50
2023-02-17T17:55:48.521Z,30.30
2023-02-17T17:58:16.930Z,30.20
2023-02-17T18:00:45.421Z,30.00
2023-02-17T18:03:13.838Z,29.80
2023-02-17T18:05:42.190Z,29.80
2023-02-17T18:08:10.560Z,29.80
2023-02-17T18:10:40.440Z,29.70
2023-02-17T18:13:13.273Z,29.80
2023-02-17T18:15:43.275Z,29.80
2023-02-17T18:18:13.327Z,29.70
2023-02-17T18:20:41.708Z,29.80
2023-02-17T18:23:09.931Z,29.60
2023-02-17T18:25:38.307Z,29.50
2023-02-17T18:28:06.702Z,29.50
2023-02-17T18:30:35.389Z,29.40
2023-02-17T18:33:04.705Z,29.30
2023-02-17T18:35:37.758Z,29.10
2023-02-17T18:38:06.043Z,29.10
2023-02-17T18:40:37.812Z,28.90
2023-02-17T18:43:06.305Z,28.90
2023-02-17T18:45:34.965Z,28.70
2023-02-17T18:48:03.250Z,28.70
2023-02-17T18:50:31.572Z,28.70
2023-02-17T18:53:00.390Z,28.60
2023-02-17T18:55:28.791Z,28.60
2023-02-17T18:57:57.255Z,28.50
2023-02-17T19:00:25.902Z,28.40
2023-02-17T19:02:54.211Z,28.40
2023-02-17T19:05:22.838Z,28.40
2023-02-17T19:07:52.280Z,28.30
2023-02-17T19:10:20.828Z,28.30
2023-02-17T19:12:49.201Z,28.20
2023-02-17T19:15:17.593Z,28.20
2023-02-17T19:17:46.034Z,28.20
2023-02-17T19:20:14.808Z,28.20
2023-02-17T19:22:43.322Z,28.20
2023-02-17T19:25:11.637Z,28.10
2023-02-17T19:27:41.233Z,28.10
2023-02-17T19:30:11.270Z,28.10
2023-02-17T19:32:39.758Z,28.00
2023-02-17T19:35:10.021Z,28.10
2023-02-17T19:37:39.969Z,28.00
2023-02-17T19:40:08.847Z,28.10
2023-02-17T19:42:37.621Z,28.00
2023-02-17T19:45:06.611Z,28.00
2023-02-17T19:47:34.849Z,28.00
2023-02-17T19:50:03.203Z,28.00
2023-02-17T19:52:31.618Z,28.00
2023-02-17T19:55:00.018Z,28.00
2023-02-17T19:57:28.234Z,28.00
2023-02-17T19:59:56.592Z,28.00
2023-02-17T20:02:24.860Z,28.00
2023-02-17T20:04:53.336Z,27.90
2023-02-17T20:07:21.556Z,28.00
2023-02-17T20:09:49.807Z,27.90
2023-02-17T20:12:18.299Z,27.90
2023-02-17T20:14:46.776Z,27.90
2023-02-17T20:17:15.853Z,27.90
2023-02-17T20:19:44.224Z,27.90
2023-02-17T20:22:12.750Z,27.90
2023-02-17T20:24:41.182Z,27.90
2023-02-17T20:27:09.622Z,27.80
2023-02-17T20:29:38.015Z,27.80
2023-02-17T20:32:06.941Z,27.80
2023-02-17T20:34:37.999Z,27.80
2023-02-17T20:37:07.292Z,27.80
2023-02-17T20:39:36.352Z,27.80
2023-02-17T20:42:05.329Z,27.70
2023-02-17T20:44:34.038Z,27.70
2023-02-17T20:47:02.457Z,27.80
2023-02-17T20:49:30.750Z,27.70
2023-02-17T20:51:59.048Z,27.80
2023-02-17T20:54:27.403Z,27.70
2023-02-17T20:56:56.922Z,27.70
2023-02-17T20:59:25.336Z,27.80
2023-02-17T21:01:53.629Z,27.80
2023-02-17T21:04:21.781Z,27.70
2023-02-17T21:06:50.150Z,27.70
2023-02-17T21:09:19.500Z,27.70
2023-02-17T21:11:48.121Z,27.70
2023-02-17T21:14:16.377Z,27.70
2023-02-17T21:16:45.236Z,27.60
2023-02-17T21:19:13.769Z,27.60
2023-02-17T21:21:42.070Z,27.70
2023-02-17T21:24:10.514Z,27.70
2023-02-17T21:26:39.089Z,27.70
2023-02-17T21:29:07.733Z,27.60
2023-02-17T21:31:36.378Z,27.60
2023-02-17T21:34:05.508Z,27.60
2023-02-17T21:36:34.003Z,27.70
2023-02-17T21:39:02.368Z,27.60
2023-02-17T21:41:31.101Z,27.60
2023-02-17T21:44:00.492Z,27.60
2023-02-17T21:46:29.908Z,27.60
2023-02-17T21:49:00.378Z,27.60
2023-02-17T21:51:29.417Z,27.60
2023-02-17T21:53:57.632Z,27.60
2023-02-17T21:56:26.312Z,27.60
2023-02-17T21:58:55.862Z,27.50
2023-02-17T22:01:26.122Z,27.50
2023-02-17T22:03:55.339Z,27.60
2023-02-17T22:06:28.984Z,27.50
2023-02-17T22:08:58.488Z,27.60
2023-02-17T22:11:32.779Z,27.50
2023-02-17T22:14:04.172Z,27.50
2023-02-17T22:16:35.487Z,27.50
2023-02-17T22:19:07.987Z,27.50
2023-02-17T22:21:36.323Z,27.50
2023-02-17T22:24:04.723Z,27.50
2023-02-17T22:26:33.341Z,27.50
2023-02-17T22:29:04.987Z,27.50
2023-02-17T22:31:35.063Z,27.50
2023-02-17T22:34:09.274Z,27.50
2023-02-17T22:36:42.703Z,27.50
2023-02-17T22:39:11.474Z,27.50
2023-02-17T22:41:41.714Z,27.40
2023-02-17T22:44:10.475Z,27.40
2023-02-17T22:46:38.730Z,27.40
2023-02-17T22:49:07.517Z,27.40
2023-02-17T22:51:43.631Z,27.40
2023-02-17T22:54:12.238Z,27.40
2023-02-17T22:56:40.742Z,27.40
2023-02-17T22:59:18.817Z,27.40
2023-02-17T23:01:47.218Z,27.40
2023-02-17T23:04:15.971Z,27.40
2023-02-17T23:06:45.277Z,27.40
2023-02-17T23:09:19.503Z,27.40
2023-02-17T23:11:47.865Z,27.40
2023-02-17T23:14:27.567Z,27.40
2023-02-17T23:17:00.177Z,27.40
2023-02-17T23:19:29.670Z,27.40
2023-02-17T23:22:01.233Z,27.30
2023-02-17T23:24:30.039Z,27.30
2023-02-17T23:27:07.495Z,27.30
2023-02-17T23:29:35.966Z,27.30
2023-02-17T23:32:04.517Z,27.30
2023-02-17T23:34:33.534Z,27.30
2023-02-17T23:37:02.883Z,27.30
2023-02-17T23:39:31.824Z,27.30
2023-02-17T23:42:00.230Z,27.30
2023-02-17T23:44:28.761Z,27.30
2023-02-17T23:46:57.081Z,27.30
2023-02-17T23:49:25.366Z,27.30
2023-02-17T23:51:53.809Z,27.30
2023-02-17T23:54:22.840Z,27.30
2023-02-17T23:56:51.310Z,27.30
2023-02-17T23:59:19.743Z,27.30
